Time;durP1;ratioP1;P1;durP2;ratioP2;P2;SDS_P1;SDS_P2;PMS_P1;PMS_P2;Temp;Humidity;BMP_temperature;BMP_pressure;BME280_temperature;BME280_humidity;BME280_pressure;Samples;Min_cycle;Max_cycle;Signal;HPM_P1;HPM_P2
2023/03/09 00:01:56;;;;;;;384.90;34.10;;;;;;;5.06;100.00;96550.16;4988534;28;20191;-81
2023/03/09 00:04:25;;;;;;;81.33;18.03;;;;;;;4.94;100.00;96556.44;4991060;28;20203;-80
2023/03/09 00:06:54;;;;;;;40.80;15.13;;;;;;;4.75;100.00;96530.91;4992456;28;20249;-80
2023/03/09 00:09:25;;;;;;;21.27;13.93;;;;;;;4.73;100.00;96562.50;4955869;28;20222;-81
2023/03/09 00:11:53;;;;;;;21.93;14.13;;;;;;;4.66;100.00;96550.84;4996891;28;20280;-80
2023/03/09 00:14:22;;;;;;;24.03;15.00;;;;;;;4.81;100.00;96549.56;5017557;28;20202;-80
2023/03/09 00:16:50;;;;;;;20.20;14.43;;;;;;;4.70;100.00;96551.41;4968346;28;20219;-80
2023/03/09 00:19:20;;;;;;;37.03;15.83;;;;;;;4.79;100.00;96548.03;4971922;28;20200;-81
2023/03/09 00:21:52;;;;;;;24.03;15.37;;;;;;;4.74;100.00;96540.56;4966520;28;20191;-82
2023/03/09 00:24:26;;;;;;;23.63;14.93;;;;;;;4.62;100.00;96557.28;4970768;28;20192;-81
2023/03/09 00:26:57;;;;;;;23.67;15.07;;;;;;;4.76;100.00;96550.94;4966448;28;20191;-81
2023/03/09 00:29:27;;;;;;;23.10;14.83;;;;;;;4.85;100.00;96542.31;4965555;28;20216;-82
2023/03/09 00:31:57;;;;;;;22.00;13.77;;;;;;;4.89;100.00;96541.91;4974706;28;20195;-81
2023/03/09 00:34:26;;;;;;;23.77;15.07;;;;;;;4.94;100.00;96540.72;4972206;28;20742;-80
2023/03/09 00:36:55;;;;;;;22.77;14.90;;;;;;;4.89;100.00;96536.66;4968893;28;20199;-80
2023/03/09 00:39:25;;;;;;;25.50;14.83;;;;;;;5.00;100.00;96533.13;4970809;28;20231;-81
2023/03/09 00:41:55;;;;;;;19.83;14.00;;;;;;;5.07;100.00;96529.03;4970886;28;20203;-81
2023/03/09 00:44:24;;;;;;;20.67;13.67;;;;;;;5.14;100.00;96535.44;4982005;28;20325;-81
2023/03/09 00:46:53;;;;;;;19.57;13.33;;;;;;;4.97;100.00;96528.16;4991038;28;20375;-82
2023/03/09 00:49:24;;;;;;;22.77;15.87;;;;;;;5.06;100.00;96519.50;4990014;28;20206;-81
2023/03/09 00:51:53;;;;;;;22.37;14.90;;;;;;;5.22;100.00;96526.09;5010589;28;20202;-82
2023/03/09 00:54:26;;;;;;;18.37;13.20;;;;;;;5.17;100.00;96518.59;5005625;28;20202;-80
2023/03/09 00:56:57;;;;;;;18.47;12.53;;;;;;;5.26;100.00;96517.00;4966939;28;20190;-81
2023/03/09 00:59:25;;;;;;;18.37;12.53;;;;;;;5.22;100.00;96521.69;5011717;28;20660;-80
2023/03/09 01:01:54;;;;;;;19.50;13.87;;;;;;;5.28;100.00;96521.16;5027884;28;20691;-80
2023/03/09 01:04:22;;;;;;;19.97;12.47;;;;;;;5.30;100.00;96513.97;5033950;28;20708;-81
2023/03/09 01:06:56;;;;;;;19.67;12.47;;;;;;;5.28;100.00;96512.44;4969088;28;20742;-80
2023/03/09 01:09:30;;;;;;;29.40;14.93;;;;;;;5.36;100.00;96516.09;4940204;28;20204;-80
2023/03/09 01:12:02;;;;;;;36.77;13.70;;;;;;;5.27;100.00;96514.25;4969005;28;20219;-80
2023/03/09 01:14:31;;;;;;;23.73;13.50;;;;;;;5.32;100.00;96512.06;4969832;28;20199;-80
2023/03/09 01:17:01;;;;;;;33.27;14.23;;;;;;;5.37;100.00;96514.28;4974356;28;20225;-81
2023/03/09 01:19:30;;;;;;;35.30;13.10;;;;;;;5.38;100.00;96513.31;4923901;28;20283;-81
2023/03/09 01:22:01;;;;;;;26.27;11.97;;;;;;;5.33;100.00;96511.09;4966542;28;20278;-81
2023/03/09 01:24:31;;;;;;;75.33;13.77;;;;;;;5.27;100.00;96513.41;4984961;28;20617;-81
2023/03/09 01:27:00;;;;;;;15.53;10.10;;;;;;;5.15;100.00;96510.88;5031308;28;20205;-81
2023/03/09 01:29:28;;;;;;;16.50;10.63;;;;;;;5.11;100.00;96513.88;5023920;28;20271;-81
2023/03/09 01:31:57;;;;;;;27.37;12.53;;;;;;;5.10;100.00;96510.41;5028592;28;20189;-80
2023/03/09 01:34:27;;;;;;;15.87;11.13;;;;;;;5.17;100.00;96511.56;4991973;28;20234;-81
2023/03/09 01:36:55;;;;;;;56.63;22.23;;;;;;;5.14;100.00;96514.47;4991258;28;20195;-81
2023/03/09 01:39:24;;;;;;;35.60;14.73;;;;;;;5.19;100.00;96521.94;4986106;28;20207;-81
2023/03/09 01:41:54;;;;;;;47.97;14.97;;;;;;;5.23;100.00;96525.13;4990712;28;20676;-81
2023/03/09 01:44:22;;;;;;;47.90;13.87;;;;;;;5.02;100.00;96522.50;4993100;28;20199;-81
2023/03/09 01:46:52;;;;;;;79.83;15.13;;;;;;;5.08;100.00;96535.13;4988317;28;20203;-80
2023/03/09 01:49:35;;;;;;;22.00;10.93;;;;;;;4.94;100.00;96523.19;4990640;28;20202;-80
2023/03/09 01:52:10;;;;;;;25.10;11.10;;;;;;;4.87;100.00;96525.47;4973303;28;20202;-81
2023/03/09 01:54:44;;;;;;;23.63;10.93;;;;;;;4.57;100.00;96526.22;4971267;28;20198;-80
2023/03/09 01:57:21;;;;;;;33.00;10.53;;;;;;;4.66;100.00;96521.19;4969686;28;20204;-80
2023/03/09 01:59:53;;;;;;;16.03;9.40;;;;;;;4.68;100.00;96524.50;5019280;28;20189;-80
2023/03/09 02:02:27;;;;;;;12.60;8.40;;;;;;;4.68;100.00;96520.09;5025852;28;20190;-81
2023/03/09 02:05:00;;;;;;;12.23;8.77;;;;;;;4.87;100.00;96514.97;5033014;28;20197;-80
2023/03/09 02:07:34;;;;;;;14.40;9.33;;;;;;;4.82;100.00;96511.06;5042118;28;20201;-81
2023/03/09 02:10:09;;;;;;;12.70;8.50;;;;;;;4.60;100.00;96520.72;5028155;28;20205;-81
2023/03/09 02:12:41;;;;;;;11.73;8.00;;;;;;;4.67;100.00;96526.28;5033054;28;20295;-81
2023/03/09 02:15:10;;;;;;;10.63;7.90;;;;;;;4.61;100.00;96526.78;5031297;28;20240;-80
2023/03/09 02:17:39;;;;;;;11.83;7.30;;;;;;;4.58;100.00;96527.88;5027941;28;20209;-81
2023/03/09 02:20:18;;;;;;;9.83;7.00;;;;;;;4.53;100.00;96527.41;5028260;28;20201;-81
2023/03/09 02:22:50;;;;;;;11.97;7.60;;;;;;;4.62;100.00;96527.63;5030565;28;20196;-80
2023/03/09 02:25:27;;;;;;;13.07;8.37;;;;;;;4.57;100.00;96526.22;5033360;28;20232;-80
2023/03/09 02:27:59;;;;;;;11.93;8.13;;;;;;;4.57;100.00;96538.50;5027780;28;20198;-81
2023/03/09 02:30:33;;;;;;;12.77;7.87;;;;;;;4.66;100.00;96536.91;5033060;28;20243;-80
2023/03/09 02:33:09;;;;;;;12.63;7.83;;;;;;;4.59;100.00;96545.28;5030537;28;20193;-80
2023/03/09 02:35:38;;;;;;;16.73;9.37;;;;;;;4.53;100.00;96548.38;5032966;28;20239;-80
2023/03/09 02:38:13;;;;;;;19.83;9.87;;;;;;;4.51;100.00;96557.34;5027617;28;20240;-80
2023/03/09 02:40:42;;;;;;;28.23;12.23;;;;;;;4.34;100.00;96563.09;5033261;28;20190;-81
2023/03/09 02:43:14;;;;;;;20.63;12.17;;;;;;;4.22;100.00;96559.69;5033318;28;20225;-80
2023/03/09 02:45:42;;;;;;;20.07;11.93;;;;;;;4.32;100.00;96555.38;5032898;28;20645;-80
2023/03/09 02:48:11;;;;;;;19.77;11.43;;;;;;;4.40;100.00;96568.69;5026981;28;20189;-80
2023/03/09 02:50:39;;;;;;;21.43;12.00;;;;;;;4.38;100.00;96567.16;5032836;28;20229;-81
2023/03/09 02:53:10;;;;;;;21.67;12.87;;;;;;;4.43;100.00;96578.91;5028424;28;20202;-81
2023/03/09 02:55:38;;;;;;;21.67;12.13;;;;;;;4.42;100.00;96574.63;4985035;28;20203;-81
2023/03/09 02:58:09;;;;;;;21.27;12.23;;;;;;;4.50;100.00;96592.38;4958314;28;20256;-80
2023/03/09 03:00:38;;;;;;;22.33;13.13;;;;;;;4.52;100.00;96593.06;4991413;28;20205;-81
2023/03/09 03:03:09;;;;;;;20.10;11.37;;;;;;;4.56;100.00;96595.31;4983809;28;20222;-80
2023/03/09 03:05:38;;;;;;;20.60;11.87;;;;;;;4.60;100.00;96599.34;4985729;28;20199;-80
2023/03/09 03:08:06;;;;;;;22.13;12.50;;;;;;;4.55;100.00;96609.38;4988345;28;20237;-81
2023/03/09 03:10:35;;;;;;;22.23;11.40;;;;;;;4.43;100.00;96618.22;4982597;28;20191;-81
2023/03/09 03:13:05;;;;;;;19.40;11.90;;;;;;;4.56;100.00;96632.03;4994858;28;20272;-81
2023/03/09 03:15:34;;;;;;;25.47;11.77;;;;;;;4.14;100.00;96632.81;5032889;28;20193;-80
2023/03/09 03:18:04;;;;;;;12.77;9.50;;;;;;;4.36;100.00;96640.66;5024096;28;20256;-81
2023/03/09 03:20:32;;;;;;;14.27;9.37;;;;;;;4.24;100.00;96652.06;4997141;28;20260;-81
2023/03/09 03:23:01;;;;;;;18.83;11.67;;;;;;;4.16;100.00;96651.88;4996068;28;20255;-80
2023/03/09 03:25:29;;;;;;;18.63;11.20;;;;;;;4.29;100.00;96658.63;5028411;28;20210;-81
2023/03/09 03:27:58;;;;;;;19.70;11.93;;;;;;;4.44;100.00;96664.47;5029116;28;20200;-81
2023/03/09 03:30:27;;;;;;;18.20;11.37;;;;;;;4.41;100.00;96672.53;5032520;28;20190;-80
2023/03/09 03:32:55;;;;;;;18.97;11.70;;;;;;;4.51;100.00;96670.84;4995661;28;20245;-80
2023/03/09 03:35:25;;;;;;;17.37;11.27;;;;;;;4.40;100.00;96681.34;5027339;28;20255;-80
2023/03/09 03:37:56;;;;;;;19.87;11.77;;;;;;;4.44;100.00;96674.94;5030200;28;20213;-80
2023/03/09 03:40:26;;;;;;;18.07;11.77;;;;;;;4.22;100.00;96688.88;4998871;28;20194;-80
2023/03/09 03:42:55;;;;;;;18.93;12.20;;;;;;;3.98;100.00;96696.88;4961956;28;20749;-80
2023/03/09 03:45:26;;;;;;;20.80;12.47;;;;;;;4.09;100.00;96713.53;4962946;28;20203;-81
2023/03/09 03:47:55;;;;;;;20.03;12.17;;;;;;;4.08;100.00;96723.16;4966751;28;20274;-80
2023/03/09 03:50:29;;;;;;;17.40;11.00;;;;;;;4.37;100.00;96730.56;4968224;28;20195;-80
2023/03/09 03:52:59;;;;;;;18.27;12.27;;;;;;;4.52;100.00;96735.41;4965875;28;20231;-81
2023/03/09 03:55:28;;;;;;;18.30;11.97;;;;;;;4.76;100.00;96723.97;4929476;29;20197;-80
2023/03/09 03:57:59;;;;;;;21.67;13.17;;;;;;;4.68;100.00;96732.44;4871789;29;20210;-80
2023/03/09 04:00:29;;;;;;;23.43;14.67;;;;;;;4.85;100.00;96744.19;4891387;28;20201;-80
2023/03/09 04:02:58;;;;;;;26.03;15.53;;;;;;;5.02;100.00;96734.97;4950074;28;20201;-81
2023/03/09 04:05:27;;;;;;;27.33;17.10;;;;;;;5.20;100.00;96740.50;4946367;28;20193;-80
2023/03/09 04:07:56;;;;;;;25.53;15.93;;;;;;;5.40;100.00;96760.72;4947243;28;20204;-79
2023/03/09 04:10:25;;;;;;;31.83;17.23;;;;;;;5.55;100.00;96777.00;4951990;29;20197;-80
2023/03/09 04:12:54;;;;;;;30.63;16.97;;;;;;;5.70;100.00;96786.25;4958864;28;20666;-81
2023/03/09 04:15:22;;;;;;;28.27;17.63;;;;;;;5.56;100.00;96786.53;4980084;28;20246;-80
2023/03/09 04:17:51;;;;;;;26.27;16.70;;;;;;;5.64;100.00;96798.09;4990907;28;20188;-80
2023/03/09 04:20:19;;;;;;;24.93;16.43;;;;;;;5.60;100.00;96806.38;4924201;29;20205;-81
2023/03/09 04:22:50;;;;;;;29.90;17.33;;;;;;;5.50;100.00;96811.53;4960571;28;20241;-80
2023/03/09 04:25:24;;;;;;;28.27;18.10;;;;;;;5.31;100.00;96811.34;4949611;28;20193;-80
2023/03/09 04:27:56;;;;;;;28.40;16.87;;;;;;;5.51;100.00;96809.72;4947886;28;20263;-80
2023/03/09 04:30:25;;;;;;;26.53;16.93;;;;;;;5.10;100.00;96809.47;4946344;28;20212;-80
2023/03/09 04:32:54;;;;;;;28.40;16.53;;;;;;;5.01;100.00;96828.56;4951695;28;20221;-80
2023/03/09 04:35:22;;;;;;;26.33;16.40;;;;;;;5.20;100.00;96827.09;4951941;29;20212;-81
2023/03/09 04:37:52;;;;;;;29.40;18.47;;;;;;;5.23;100.00;96826.88;4963591;28;20191;-80
2023/03/09 04:40:21;;;;;;;29.63;18.47;;;;;;;5.25;100.00;96840.69;5003898;28;20349;-81
2023/03/09 04:42:49;;;;;;;30.33;18.93;;;;;;;5.27;100.00;96834.34;5007186;28;20190;-81
2023/03/09 04:45:17;;;;;;;29.20;18.70;;;;;;;5.47;100.00;96843.25;5035516;28;20213;-81
2023/03/09 04:47:47;;;;;;;29.47;18.67;;;;;;;5.45;100.00;96846.00;5028229;28;20190;-81
2023/03/09 04:50:16;;;;;;;27.90;17.50;;;;;;;5.51;100.00;96847.31;5032320;28;20255;-80
2023/03/09 04:52:44;;;;;;;27.30;17.13;;;;;;;5.46;100.00;96852.91;5032621;28;20225;-80
2023/03/09 04:55:14;;;;;;;26.80;18.00;;;;;;;5.65;100.00;96867.19;4995749;28;20194;-80
2023/03/09 04:57:43;;;;;;;32.53;20.23;;;;;;;5.58;100.00;96864.22;5030532;28;20208;-81
2023/03/09 05:00:12;;;;;;;26.73;17.33;;;;;;;5.80;100.00;96867.75;4998599;28;20190;-80
2023/03/09 05:02:41;;;;;;;25.70;17.40;;;;;;;5.80;100.00;96878.25;4985537;28;20233;-80
2023/03/09 05:05:10;;;;;;;26.33;17.30;;;;;;;5.85;100.00;96881.31;4970191;28;20253;-80
2023/03/09 05:07:39;;;;;;;25.90;16.00;;;;;;;5.86;100.00;96893.50;4989762;28;20191;-80
2023/03/09 05:10:09;;;;;;;23.70;16.37;;;;;;;5.78;100.00;96896.75;4988177;28;20654;-80
2023/03/09 05:12:40;;;;;;;23.50;16.43;;;;;;;5.81;100.00;96900.94;4984584;28;20317;-80
2023/03/09 05:15:10;;;;;;;24.43;15.43;;;;;;;5.95;100.00;96887.53;4991521;28;20634;-80
2023/03/09 05:17:39;;;;;;;27.00;16.50;;;;;;;5.90;100.00;96906.31;4977882;28;20203;-80
2023/03/09 05:20:11;;;;;;;26.70;16.80;;;;;;;5.97;100.00;96919.75;4990048;28;20678;-81
2023/03/09 05:22:39;;;;;;;23.17;15.70;;;;;;;5.89;100.00;96922.16;4953120;28;20211;-81
2023/03/09 05:25:09;;;;;;;25.43;16.00;;;;;;;6.06;100.00;96919.00;4952030;28;20248;-80
2023/03/09 05:27:40;;;;;;;25.07;16.63;;;;;;;5.99;100.00;96925.75;4947961;28;20205;-80
2023/03/09 05:30:12;;;;;;;23.37;15.53;;;;;;;5.90;100.00;96929.09;4947239;28;20208;-80
2023/03/09 05:32:43;;;;;;;25.20;16.20;;;;;;;6.01;100.00;96936.94;4955156;28;20263;-81
2023/03/09 05:35:11;;;;;;;24.47;16.47;;;;;;;6.10;100.00;96941.47;4986880;28;20230;-80
2023/03/09 05:37:40;;;;;;;24.70;16.00;;;;;;;6.16;100.00;96951.44;4989487;28;20195;-81
2023/03/09 05:40:11;;;;;;;23.87;15.50;;;;;;;6.23;100.00;96957.88;4986675;28;20202;-81
2023/03/09 05:42:39;;;;;;;25.60;16.13;;;;;;;6.12;100.00;96950.03;4993343;28;20195;-81
2023/03/09 05:45:11;;;;;;;25.53;16.00;;;;;;;6.21;100.00;96965.06;4987004;28;20196;-80
2023/03/09 05:47:43;;;;;;;20.67;15.00;;;;;;;6.39;100.00;96972.41;4958767;28;20282;-80
2023/03/09 05:50:11;;;;;;;23.03;14.57;;;;;;;6.56;100.00;96969.19;4990658;28;20273;-81
2023/03/09 05:52:40;;;;;;;24.83;15.63;;;;;;;6.55;100.00;96967.53;4948900;28;20299;-80
2023/03/09 05:55:09;;;;;;;22.40;15.03;;;;;;;6.71;100.00;96975.81;4962934;28;20203;-80
2023/03/09 05:57:39;;;;;;;24.83;14.60;;;;;;;6.72;100.00;96982.75;4965473;28;20275;-80
2023/03/09 06:00:09;;;;;;;22.20;14.97;;;;;;;6.72;100.00;96981.91;4968229;28;20200;-80
2023/03/09 06:02:39;;;;;;;23.10;14.30;;;;;;;6.87;100.00;96992.00;4973621;28;20198;-80
2023/03/09 06:05:10;;;;;;;25.67;15.20;;;;;;;6.84;100.00;96999.28;4970837;28;20192;-80
2023/03/09 06:07:40;;;;;;;23.57;14.47;;;;;;;6.97;100.00;97005.22;4966086;28;20216;-80
2023/03/09 06:10:12;;;;;;;23.53;15.83;;;;;;;6.94;100.00;97009.88;4971879;28;20211;-80
2023/03/09 06:12:41;;;;;;;21.93;14.83;;;;;;;6.98;100.00;97008.69;4961557;28;20282;-80
2023/03/09 06:15:11;;;;;;;19.00;13.73;;;;;;;6.90;100.00;97011.94;4969245;28;20207;-80
2023/03/09 06:17:40;;;;;;;21.67;14.87;;;;;;;6.93;100.00;97019.59;5003532;28;20197;-80
2023/03/09 06:20:10;;;;;;;18.20;13.33;;;;;;;6.97;100.00;97020.19;5031027;28;20261;-80
2023/03/09 06:22:40;;;;;;;20.07;12.73;;;;;;;7.17;100.00;97017.53;5028552;28;20202;-80
2023/03/09 06:25:09;;;;;;;19.37;12.67;;;;;;;7.13;100.00;97016.09;5033627;28;20355;-80
2023/03/09 06:27:38;;;;;;;17.43;12.53;;;;;;;7.21;100.00;97026.00;4993069;28;20255;-81
2023/03/09 06:30:08;;;;;;;14.70;11.50;;;;;;;7.31;100.00;97020.78;5008469;28;20193;-81
2023/03/09 06:32:38;;;;;;;17.00;10.77;;;;;;;7.38;100.00;97020.13;5025873;28;20672;-80
2023/03/09 06:35:10;;;;;;;16.03;11.53;;;;;;;7.47;100.00;97026.41;5031040;28;20205;-81
2023/03/09 06:37:38;;;;;;;18.20;11.17;;;;;;;7.58;100.00;97028.13;5029856;28;20707;-80
2023/03/09 06:40:12;;;;;;;18.40;11.67;;;;;;;7.47;100.00;97026.41;5032311;28;20221;-80
2023/03/09 06:42:40;;;;;;;13.90;10.57;;;;;;;7.43;100.00;97040.78;5029562;28;20233;-80
2023/03/09 06:45:10;;;;;;;15.47;10.90;;;;;;;7.60;100.00;97032.28;5032129;28;20510;-81
2023/03/09 06:47:38;;;;;;;16.00;11.00;;;;;;;7.58;100.00;97036.03;4989256;28;20238;-81
2023/03/09 06:50:10;;;;;;;16.40;11.17;;;;;;;7.53;100.00;97028.53;4988684;28;20199;-82
2023/03/09 06:52:41;;;;;;;33.90;25.67;;;;;;;7.54;100.00;97043.38;4988173;28;20237;-82
2023/03/09 06:55:10;;;;;;;19.47;12.53;;;;;;;7.57;100.00;97047.53;4989809;28;20199;-82
2023/03/09 06:57:45;;;;;;;17.13;11.67;;;;;;;7.64;100.00;97052.16;4985576;28;20230;-82
2023/03/09 07:00:14;;;;;;;16.43;11.50;;;;;;;7.51;100.00;97056.78;4989226;28;20204;-82
2023/03/09 07:02:43;;;;;;;17.13;12.00;;;;;;;7.67;100.00;97048.41;4988570;28;20198;-81
2023/03/09 07:05:13;;;;;;;16.93;12.23;;;;;;;7.64;100.00;97056.59;4973951;28;20204;-82
2023/03/09 07:07:42;;;;;;;18.07;12.03;;;;;;;7.67;100.00;97051.03;4971670;28;20358;-82
2023/03/09 07:10:12;;;;;;;14.03;10.10;;;;;;;7.71;100.00;97069.06;4967350;28;20230;-82
2023/03/09 07:12:41;;;;;;;14.87;10.00;;;;;;;7.66;100.00;97068.66;5002799;28;20684;-81
2023/03/09 07:15:10;;;;;;;14.60;9.57;;;;;;;7.70;100.00;97067.41;5028967;28;20202;-81
2023/03/09 07:17:38;;;;;;;13.37;8.90;;;;;;;7.79;100.00;97067.59;4998847;28;20193;-81
2023/03/09 07:20:08;;;;;;;11.43;8.07;;;;;;;7.92;100.00;97074.31;4950046;28;20264;-81
2023/03/09 07:22:40;;;;;;;9.23;6.70;;;;;;;7.99;100.00;97083.34;4950312;28;20208;-81
2023/03/09 07:25:10;;;;;;;10.73;6.37;;;;;;;8.04;100.00;97083.78;4903659;28;20324;-81
2023/03/09 07:27:39;;;;;;;9.47;6.93;;;;;;;8.06;100.00;97086.28;4950243;29;20208;-82
2023/03/09 07:30:09;;;;;;;8.90;6.80;;;;;;;8.10;100.00;97094.75;4952483;28;20296;-81
2023/03/09 07:32:37;;;;;;;8.80;6.20;;;;;;;8.08;100.00;97099.31;4953492;28;20196;-81
2023/03/09 07:35:09;;;;;;;6.23;4.63;;;;;;;8.28;100.00;97099.25;4948742;28;20242;-81
2023/03/09 07:37:41;;;;;;;8.00;4.87;;;;;;;8.13;100.00;97095.31;4951961;28;20277;-81
2023/03/09 07:40:12;;;;;;;7.17;4.47;;;;;;;8.41;100.00;97108.78;5007771;28;20189;-81
2023/03/09 07:42:43;;;;;;;6.77;4.17;;;;;;;8.48;100.00;97118.63;5015262;28;20655;-81
2023/03/09 07:45:13;;;;;;;7.47;3.90;;;;;;;8.57;100.00;97124.88;5030470;28;20205;-81
2023/03/09 07:47:41;;;;;;;8.70;4.23;;;;;;;8.50;100.00;97126.44;5029172;28;20251;-81
2023/03/09 07:50:11;;;;;;;8.60;3.90;;;;;;;8.43;100.00;97125.28;5031241;28;20724;-81
2023/03/09 07:52:41;;;;;;;7.10;3.60;;;;;;;8.45;100.00;97129.44;5031205;28;20190;-81
2023/03/09 07:55:11;;;;;;;8.30;3.63;;;;;;;8.56;100.00;97134.59;5028333;28;20217;-82
2023/03/09 07:57:40;;;;;;;10.20;4.97;;;;;;;8.68;100.00;97145.03;5026709;28;20190;-81
2023/03/09 08:00:13;;;;;;;8.27;4.50;;;;;;;8.66;100.00;97139.06;5026226;28;20201;-82
2023/03/09 08:02:42;;;;;;;11.07;5.73;;;;;;;8.60;100.00;97138.66;5032672;28;20193;-82
2023/03/09 08:05:11;;;;;;;13.03;8.47;;;;;;;8.75;100.00;97143.53;5029417;28;20243;-82
2023/03/09 08:07:42;;;;;;;12.27;6.03;;;;;;;8.63;100.00;97148.09;5029610;28;20696;-82
2023/03/09 08:10:14;;;;;;;11.97;4.37;;;;;;;8.33;100.00;97162.16;5037105;28;20192;-81
2023/03/09 08:12:43;;;;;;;6.70;4.03;;;;;;;8.46;100.00;97154.03;5032140;28;20226;-81
2023/03/09 08:15:12;;;;;;;14.60;9.83;;;;;;;8.56;100.00;97147.81;5029833;28;20218;-82
2023/03/09 08:17:41;;;;;;;14.60;10.60;;;;;;;8.68;100.00;97155.59;4985575;28;20210;-81
2023/03/09 08:20:11;;;;;;;18.13;10.93;;;;;;;8.66;100.00;97157.53;4990140;28;20253;-81
2023/03/09 08:22:39;;;;;;;11.33;4.70;;;;;;;8.50;100.00;97163.34;4989763;28;20269;-81
2023/03/09 08:25:11;;;;;;;16.33;9.30;;;;;;;8.79;100.00;97158.16;4988711;28;20199;-81
2023/03/09 08:27:40;;;;;;;9.27;4.43;;;;;;;8.63;100.00;97163.94;4994850;28;20207;-81
2023/03/09 08:30:11;;;;;;;7.63;4.93;;;;;;;8.57;100.00;97173.22;4991777;28;20199;-81
2023/03/09 08:32:40;;;;;;;8.47;3.93;;;;;;;8.77;100.00;97171.44;4989761;28;20195;-82
2023/03/09 08:35:10;;;;;;;10.73;5.20;;;;;;;8.75;100.00;97175.22;4999734;28;20245;-81
2023/03/09 08:37:38;;;;;;;7.60;3.30;;;;;;;8.67;100.00;97178.50;4980238;28;20202;-81
2023/03/09 08:40:10;;;;;;;10.17;3.23;;;;;;;8.81;100.00;97186.06;4982033;28;20199;-81
2023/03/09 08:42:39;;;;;;;8.63;3.40;;;;;;;8.87;100.00;97174.94;5011377;28;20199;-81
2023/03/09 08:45:09;;;;;;;6.33;3.43;;;;;;;8.98;100.00;97183.75;5014346;28;20256;-80
2023/03/09 08:47:39;;;;;;;6.30;2.70;;;;;;;9.10;100.00;97188.75;5012575;28;20208;-81
2023/03/09 08:50:12;;;;;;;6.13;2.50;;;;;;;9.21;100.00;97187.78;5011886;28;20207;-81
2023/03/09 08:52:42;;;;;;;7.13;2.30;;;;;;;9.38;100.00;97181.81;5009516;28;20673;-81
2023/03/09 08:55:12;;;;;;;5.17;2.17;;;;;;;9.53;100.00;97181.38;5015456;28;20220;-80
2023/03/09 08:57:41;;;;;;;4.63;1.63;;;;;;;9.65;100.00;97180.25;5035752;28;20706;-81
2023/03/09 09:00:15;;;;;;;2.80;1.43;;;;;;;9.67;100.00;97176.50;5034468;28;20228;-81
2023/03/09 09:02:44;;;;;;;5.20;1.90;;;;;;;9.78;100.00;97183.44;5014476;28;20194;-82
2023/03/09 09:05:18;;;;;;;5.67;1.67;;;;;;;9.78;100.00;97191.38;5029454;28;20190;-81
2023/03/09 09:07:48;;;;;;;3.20;1.43;;;;;;;9.79;100.00;97189.56;5030742;28;20328;-80
2023/03/09 09:10:24;;;;;;;3.67;1.20;;;;;;;9.83;100.00;97183.00;5032496;28;20292;-81
2023/03/09 09:13:03;;;;;;;2.97;1.10;;;;;;;9.84;100.00;97174.91;5033558;28;20280;-80
2023/03/09 09:15:32;;;;;;;4.03;1.20;;;;;;;9.90;100.00;97189.41;5035151;28;20297;-81
2023/03/09 09:18:04;;;;;;;3.60;1.33;;;;;;;9.91;100.00;97178.66;5030654;28;20206;-81
2023/03/09 09:20:33;;;;;;;2.30;1.07;;;;;;;9.96;100.00;97167.69;5026564;28;20400;-81
2023/03/09 09:23:01;;;;;;;3.27;1.20;;;;;;;10.00;100.00;97195.50;5028353;28;20264;-80
2023/03/09 09:25:31;;;;;;;1.70;1.00;;;;;;;10.17;100.00;97186.81;5029828;28;20194;-81
2023/03/09 09:28:01;;;;;;;3.57;1.27;;;;;;;10.17;100.00;97186.81;5034033;28;20194;-81
2023/03/09 09:30:32;;;;;;;2.30;1.00;;;;;;;10.22;100.00;97194.34;5028863;28;20186;-81
2023/03/09 09:33:00;;;;;;;2.20;0.90;;;;;;;10.35;100.00;97196.69;5030292;28;20202;-81
2023/03/09 09:35:28;;;;;;;5.00;1.40;;;;;;;10.25;100.00;97200.19;5034470;28;20214;-81
2023/03/09 09:37:59;;;;;;;4.17;1.07;;;;;;;10.42;100.00;97198.63;5031308;28;20189;-81
2023/03/09 09:40:27;;;;;;;1.87;0.93;;;;;;;10.73;100.00;97187.75;5031858;28;20193;-81
2023/03/09 09:42:58;;;;;;;3.70;0.97;;;;;;;10.66;100.00;97194.59;5028906;28;20196;-81
2023/03/09 09:45:32;;;;;;;2.23;0.80;;;;;;;10.59;100.00;97196.97;5034781;28;20322;-81
2023/03/09 09:48:03;;;;;;;1.80;0.80;;;;;;;10.42;100.00;97198.63;5030058;28;20302;-81
2023/03/09 09:50:50;;;;;;;1.93;0.90;;;;;;;10.56;100.00;97200.75;5030782;28;20649;-81
2023/03/09 09:53:33;;;;;;;0.63;0.60;;;;;;;10.47;100.00;97201.63;5031942;28;20194;-81
2023/03/09 09:56:03;;;;;;;2.20;1.00;;;;;;;10.17;100.00;97192.09;5030580;28;20217;-80
2023/03/09 09:58:42;;;;;;;1.43;0.70;;;;;;;10.19;100.00;97205.19;5033084;28;20236;-80
2023/03/09 10:01:25;;;;;;;1.00;0.70;;;;;;;10.43;100.00;97210.03;5032055;28;20194;-81
2023/03/09 10:04:01;;;;;;;2.83;0.70;;;;;;;10.50;100.00;97216.38;5035561;28;20656;-81
2023/03/09 10:06:31;;;;;;;1.67;0.80;;;;;;;10.53;100.00;97214.31;5032825;28;20197;-81
2023/03/09 10:09:03;;;;;;;1.80;0.70;;;;;;;10.62;100.00;97214.41;5031156;28;20318;-81
2023/03/09 10:11:35;;;;;;;2.10;0.83;;;;;;;10.64;100.00;97210.63;5033669;28;20636;-80
2023/03/09 10:14:13;;;;;;;1.20;0.90;;;;;;;10.67;100.00;97214.78;5034160;28;20196;-81
2023/03/09 10:16:47;;;;;;;0.93;0.70;;;;;;;10.61;100.00;97216.19;5029323;28;20217;-80
2023/03/09 10:19:18;;;;;;;1.33;0.80;;;;;;;10.63;100.00;97214.25;5028294;28;20212;-80
2023/03/09 10:21:54;;;;;;;1.63;0.80;;;;;;;10.52;100.00;97220.56;5028881;28;20253;-80
2023/03/09 10:24:24;;;;;;;2.70;0.90;;;;;;;10.65;100.00;97222.06;5031263;28;20205;-80
2023/03/09 10:26:58;;;;;;;2.20;0.80;;;;;;;10.67;100.00;97222.72;5030521;28;20201;-80
2023/03/09 10:29:41;;;;;;;1.43;0.80;;;;;;;10.68;100.00;97230.53;5032888;28;20197;-80
2023/03/09 10:32:18;;;;;;;2.33;0.63;;;;;;;10.83;100.00;97234.38;5028118;28;20190;-81
2023/03/09 10:34:55;;;;;;;2.60;0.70;;;;;;;10.76;100.00;97230.63;5028269;28;20232;-81
2023/03/09 10:37:26;;;;;;;2.33;1.00;;;;;;;10.64;100.00;97234.44;5031181;28;20197;-80
2023/03/09 10:39:54;;;;;;;1.73;0.90;;;;;;;10.64;100.00;97245.03;5034625;28;20232;-80
2023/03/09 10:42:26;;;;;;;0.70;0.67;;;;;;;11.06;100.00;97232.13;5030717;28;20198;-80
2023/03/09 10:45:15;;;;;;;1.80;0.73;;;;;;;11.30;100.00;97244.81;5024943;28;20197;-80
2023/03/09 10:47:59;;;;;;;1.50;0.70;;;;;;;11.43;100.00;97265.66;5026817;28;20217;-81
2023/03/09 10:50:31;;;;;;;1.33;0.73;;;;;;;11.36;100.00;97251.31;5022545;28;20281;-81
2023/03/09 10:53:24;;;;;;;1.30;0.60;;;;;;;11.39;100.00;97257.19;5026411;28;20194;-81
2023/03/09 10:55:55;;;;;;;1.63;0.80;;;;;;;11.34;100.00;97258.59;5028834;28;20217;-80
2023/03/09 10:58:34;;;;;;;1.77;0.70;;;;;;;11.29;100.00;97266.16;5026082;28;20213;-80
2023/03/09 11:01:06;;;;;;;2.03;0.77;;;;;;;11.31;100.00;97261.56;5030168;28;20205;-80
2023/03/09 11:03:37;;;;;;;1.50;0.70;;;;;;;11.23;100.00;97270.25;5030367;28;20206;-80
2023/03/09 11:06:33;;;;;;;1.30;0.70;;;;;;;11.22;100.00;97270.41;4977462;28;20196;-80
2023/03/09 11:09:11;;;;;;;0.87;0.50;;;;;;;11.17;100.00;97270.84;4967251;28;20210;-81
2023/03/09 11:11:46;;;;;;;1.43;0.70;;;;;;;11.14;100.00;97297.63;4969876;28;20235;-81
2023/03/09 11:14:24;;;;;;;1.07;0.60;;;;;;;11.28;100.00;97286.53;4967646;28;20192;-81
2023/03/09 11:16:56;;;;;;;2.97;0.80;;;;;;;11.37;100.00;97287.44;4969918;28;20247;-81
2023/03/09 11:19:25;;;;;;;1.97;0.67;;;;;;;11.37;100.00;97290.94;4968814;28;20203;-80
2023/03/09 11:22:01;;;;;;;1.63;0.73;;;;;;;11.50;100.00;97293.25;4971502;28;20254;-81
2023/03/09 11:24:35;;;;;;;1.60;0.63;;;;;;;11.71;100.00;97293.78;5002623;28;20205;-81
2023/03/09 11:27:07;;;;;;;2.83;0.60;;;;;;;11.55;100.00;97300.72;5033097;28;20198;-81
2023/03/09 11:29:48;;;;;;;1.13;0.73;;;;;;;11.42;100.00;97301.94;5030611;28;20186;-81
2023/03/09 11:32:20;;;;;;;0.87;0.60;;;;;;;11.46;100.00;97299.81;5032741;28;20199;-81
2023/03/09 11:34:50;;;;;;;1.77;0.63;;;;;;;11.45;100.00;97293.66;5025796;28;20216;-81
2023/03/09 11:37:24;;;;;;;0.93;0.80;;;;;;;11.38;100.00;97294.41;5027026;28;20225;-81
2023/03/09 11:40:00;;;;;;;3.63;3.20;;;;;;;11.25;100.00;97288.66;5031807;28;20201;-81